createdAt,value
2023-01-06T00:02:18.432Z,2.67
2023-01-06T00:07:20.967Z,4.82
2023-01-06T00:12:23.345Z,6.28
2023-01-06T00:17:25.629Z,4.25
2023-01-06T00:22:27.950Z,3.95
2023-01-06T00:27:32.052Z,4.68
2023-01-06T00:32:34.485Z,5.68
2023-01-06T00:37:36.827Z,2.60
2023-01-06T00:42:38.958Z,4.88
2023-01-06T00:47:41.413Z,6.22
2023-01-06T00:52:43.706Z,2.13
2023-01-06T00:57:45.901Z,3.85
2023-01-06T01:02:48.941Z,1.88
2023-01-06T01:07:51.258Z,7.10
2023-01-06T01:12:53.613Z,3.22
2023-01-06T01:17:55.821Z,1.67
2023-01-06T01:22:58.141Z,3.53
2023-01-06T01:28:00.400Z,2.95
2023-01-06T01:33:02.637Z,2.35
2023-01-06T01:38:05.095Z,3.60
2023-01-06T01:43:12.394Z,2.97
2023-01-06T01:48:35.921Z,2.83
2023-01-06T01:53:50.175Z,3.83
2023-01-06T01:59:03.733Z,3.92
2023-01-06T02:04:06.599Z,4.63
2023-01-06T02:09:26.616Z,2.78
2023-01-06T02:14:29.397Z,3.95
2023-01-06T02:20:07.297Z,4.68
2023-01-06T02:25:28.708Z,3.95
2023-01-06T02:31:25.157Z,3.92
2023-01-06T02:36:34.498Z,4.53
2023-01-06T02:41:47.035Z,4.13
2023-01-06T02:47:05.015Z,5.22
2023-01-06T02:52:19.714Z,5.28
2023-01-06T02:57:36.880Z,4.60
2023-01-06T03:02:42.934Z,3.53
2023-01-06T03:07:47.040Z,4.53
2023-01-06T03:12:55.951Z,4.93
2023-01-06T03:17:59.128Z,3.63
2023-01-06T03:23:01.708Z,13.35
2023-01-06T03:28:04.129Z,3.30
2023-01-06T03:33:18.152Z,4.95
2023-01-06T03:39:11.497Z,3.80
2023-01-06T03:44:26.319Z,4.82
2023-01-06T03:49:35.578Z,2.83
2023-01-06T03:54:45.866Z,2.70
2023-01-06T03:59:55.791Z,4.28
2023-01-06T04:05:10.549Z,5.35
2023-01-06T04:10:15.105Z,3.03
2023-01-06T04:15:23.373Z,6.10
2023-01-06T04:20:30.193Z,4.45
2023-01-06T04:25:44.183Z,2.67
2023-01-06T04:30:58.884Z,2.70
2023-01-06T04:36:02.598Z,5.40
2023-01-06T04:41:05.338Z,4.47
2023-01-06T04:46:08.183Z,4.38
2023-01-06T04:51:11.730Z,4.65
2023-01-06T04:56:14.413Z,4.60
2023-01-06T05:01:16.837Z,5.60
2023-01-06T05:06:20.567Z,10.70
2023-01-06T05:11:25.393Z,30.70
2023-01-06T05:16:33.202Z,14.90
2023-01-06T05:21:35.622Z,10.00
2023-01-06T05:26:37.909Z,5.43
2023-01-06T05:31:40.234Z,6.40
2023-01-06T05:36:42.609Z,6.88
2023-01-06T05:41:45.510Z,4.75
2023-01-06T05:46:47.999Z,5.45
2023-01-06T05:51:50.373Z,6.18
2023-01-06T05:56:52.713Z,7.75
2023-01-06T06:01:54.983Z,5.18
2023-01-06T06:06:57.334Z,17.50
2023-01-06T06:11:59.658Z,4.00
2023-01-06T06:17:02.373Z,4.82
2023-01-06T06:22:04.771Z,5.47
2023-01-06T06:27:07.026Z,12.30
2023-01-06T06:32:09.471Z,3.92
2023-01-06T06:37:22.479Z,4.00
2023-01-06T06:42:26.614Z,4.47
2023-01-06T06:47:28.995Z,5.00
2023-01-06T06:52:31.190Z,4.20
2023-01-06T06:57:33.390Z,4.22
2023-01-06T07:02:35.939Z,3.50
2023-01-06T07:07:38.616Z,3.38
2023-01-06T07:13:13.598Z,4.70
2023-01-06T07:18:15.894Z,2.47
2023-01-06T07:23:18.226Z,3.05
2023-01-06T07:28:27.227Z,5.50
2023-01-06T07:33:30.009Z,4.25
2023-01-06T07:38:32.914Z,4.53
2023-01-06T07:43:35.419Z,5.13
2023-01-06T07:48:37.984Z,3.17
2023-01-06T07:53:43.372Z,7.45
2023-01-06T07:58:45.905Z,5.50
2023-01-06T08:03:48.164Z,5.50
2023-01-06T08:08:50.492Z,6.45
2023-01-06T08:13:52.888Z,7.28
2023-01-06T08:18:55.259Z,3.53
2023-01-06T08:23:57.711Z,2.83
2023-01-06T08:29:00.085Z,5.50
2023-01-06T08:34:02.390Z,5.95
2023-01-06T08:39:04.874Z,5.13
2023-01-06T08:44:08.155Z,5.18
2023-01-06T08:49:10.554Z,13.88
2023-01-06T08:54:14.888Z,22.50
2023-01-06T08:59:18.362Z,2.72
2023-01-06T09:04:20.886Z,5.38
2023-01-06T09:09:23.458Z,2.42
2023-01-06T09:14:25.960Z,2.10
2023-01-06T09:19:28.426Z,2.30
2023-01-06T09:24:30.797Z,1.65
2023-01-06T09:29:34.789Z,2.08
2023-01-06T09:34:37.195Z,2.50
2023-01-06T09:39:40.179Z,7.93
2023-01-06T09:44:59.200Z,18.30
2023-01-06T09:50:17.643Z,5.20
2023-01-06T09:55:29.020Z,6.53
2023-01-06T10:00:40.230Z,2.70
2023-01-06T10:06:07.816Z,8.35
2023-01-06T10:11:24.416Z,2.38
2023-01-06T10:16:46.579Z,3.55
2023-01-06T10:27:38.157Z,1.85
2023-01-06T10:32:42.841Z,15.02
2023-01-06T10:37:49.178Z,2.80
2023-01-06T10:43:04.115Z,6.78
2023-01-06T10:48:11.465Z,2.05
2023-01-06T10:53:15.879Z,1.40
2023-01-06T10:58:36.446Z,3.53
2023-01-06T11:03:43.393Z,1.08
2023-01-06T11:08:48.474Z,1.92
2023-01-06T11:13:53.738Z,2.13
2023-01-06T11:26:14.712Z,2.53
2023-01-06T11:31:22.251Z,2.00
2023-01-06T11:36:29.204Z,3.75
2023-01-06T11:41:36.852Z,2.05
2023-01-06T11:46:46.503Z,3.05
2023-01-06T11:51:50.055Z,2.38
2023-01-06T11:57:00.525Z,3.97
2023-01-06T12:02:02.911Z,2.27
2023-01-06T12:07:38.438Z,3.10
2023-01-06T12:12:40.813Z,4.13
2023-01-06T12:17:52.945Z,26.55
2023-01-06T12:22:59.079Z,6.32
2023-01-06T12:28:06.615Z,20.90
2023-01-06T12:33:40.084Z,8.13
2023-01-06T12:38:56.789Z,3.22
2023-01-06T12:44:18.131Z,10.25
2023-01-06T12:49:35.602Z,9.10
2023-01-06T12:54:38.571Z,13.13
2023-01-06T13:00:14.609Z,7.10
2023-01-06T13:05:26.843Z,9.32
2023-01-06T13:10:35.065Z,4.93
2023-01-06T13:15:41.086Z,8.27
2023-01-06T13:20:48.892Z,13.65
2023-01-06T13:26:09.714Z,7.90
2023-01-06T13:31:50.782Z,9.68
2023-01-06T13:37:22.459Z,15.45
2023-01-06T13:42:45.659Z,30.13
2023-01-06T13:47:50.892Z,2.50
2023-01-06T13:52:55.155Z,5.65
2023-01-06T13:57:59.268Z,2.35
2023-01-06T14:03:13.592Z,2.85
2023-01-06T14:08:19.870Z,4.70
2023-01-06T14:13:26.682Z,4.15
2023-01-06T14:18:34.857Z,2.78
2023-01-06T14:23:37.670Z,5.28
2023-01-06T14:28:40.012Z,4.32
2023-01-06T14:33:45.097Z,11.73
2023-01-06T14:38:51.884Z,4.63
2023-01-06T14:44:01.161Z,7.60
2023-01-06T14:49:06.423Z,4.05
2023-01-06T14:54:14.604Z,8.98
2023-01-06T14:59:16.851Z,24.95
2023-01-06T15:04:24.286Z,10.30
2023-01-06T15:09:26.843Z,10.25
2023-01-06T15:14:34.075Z,11.80
2023-01-06T15:19:36.980Z,23.65
2023-01-06T15:24:43.221Z,8.85
2023-01-06T15:29:57.312Z,2.00
2023-01-06T15:35:00.337Z,16.13
2023-01-06T15:40:05.059Z,59.00
2023-01-06T15:45:22.548Z,13.05
2023-01-06T15:55:51.659Z,25.92
2023-01-06T16:01:01.663Z,47.28
2023-01-06T16:06:12.994Z,160.13
2023-01-06T16:16:20.450Z,9.18
2023-01-06T16:21:26.734Z,16.35
2023-01-06T16:26:33.255Z,41.25
2023-01-06T16:31:39.939Z,19.73
2023-01-06T16:36:42.619Z,15.15
2023-01-06T16:42:00.369Z,14.98
2023-01-06T16:47:02.975Z,16.92
2023-01-06T16:52:06.624Z,7.30
2023-01-06T16:57:11.888Z,213.10
2023-01-06T17:02:19.364Z,34.33
2023-01-06T17:07:22.180Z,35.00
2023-01-06T17:12:43.307Z,27.25
2023-01-06T17:17:45.633Z,11.70
2023-01-06T17:22:49.951Z,55.20
2023-01-06T17:27:56.097Z,22.85
2023-01-06T17:32:58.241Z,45.70
2023-01-06T17:38:08.260Z,84.57
2023-01-06T17:43:27.668Z,35.08
2023-01-06T17:48:30.204Z,24.98
2023-01-06T17:53:55.708Z,42.92
2023-01-06T17:59:05.596Z,32.65
2023-01-06T18:04:14.496Z,21.02
2023-01-06T18:09:23.699Z,39.05
2023-01-06T18:14:26.181Z,46.70
2023-01-06T18:19:37.998Z,13.85
2023-01-06T18:24:42.031Z,162.35
2023-01-06T18:29:44.930Z,28.10
2023-01-06T18:34:52.825Z,114.65
2023-01-06T18:40:02.744Z,38.17
2023-01-06T18:45:08.040Z,36.75
2023-01-06T18:50:26.072Z,89.07
2023-01-06T18:55:57.934Z,53.45
2023-01-06T19:01:03.067Z,85.50
2023-01-06T19:06:11.465Z,62.60
2023-01-06T19:11:20.131Z,105.15
2023-01-06T19:16:47.466Z,74.45
2023-01-06T19:21:50.944Z,100.32
2023-01-06T19:26:54.568Z,138.65
2023-01-06T19:32:00.074Z,89.63
2023-01-06T19:37:02.280Z,161.50
2023-01-06T19:42:27.389Z,122.25
2023-01-06T19:47:36.178Z,64.90
2023-01-06T19:52:40.692Z,64.97
2023-01-06T19:57:48.309Z,72.03
2023-01-06T20:02:57.139Z,93.55
2023-01-06T20:07:59.565Z,96.60
2023-01-06T20:13:01.683Z,86.80
2023-01-06T20:18:03.754Z,78.97
2023-01-06T20:23:07.222Z,66.32
2023-01-06T20:28:09.504Z,76.72
2023-01-06T20:33:14.459Z,60.80
2023-01-06T20:38:16.669Z,45.90
2023-01-06T20:43:22.300Z,48.25
2023-01-06T20:48:24.631Z,67.57
2023-01-06T20:53:32.044Z,75.43
2023-01-06T20:58:34.332Z,42.72
2023-01-06T21:03:39.717Z,41.90
2023-01-06T21:08:42.139Z,37.47
2023-01-06T21:13:44.812Z,102.38
2023-01-06T21:18:47.885Z,70.63
2023-01-06T21:23:49.985Z,69.75
2023-01-06T21:28:52.361Z,77.47
2023-01-06T21:33:59.552Z,79.57
2023-01-06T21:39:01.748Z,69.95
2023-01-06T21:44:04.161Z,87.78
2023-01-06T21:49:07.577Z,68.82
2023-01-06T21:54:19.166Z,54.90
2023-01-06T21:59:21.332Z,84.25
2023-01-06T22:04:23.903Z,50.05
2023-01-06T22:09:28.328Z,44.22
2023-01-06T22:14:31.902Z,27.48
2023-01-06T22:19:34.828Z,45.47
2023-01-06T22:24:37.017Z,30.52
2023-01-06T22:29:39.193Z,34.58
2023-01-06T22:34:44.840Z,38.28
2023-01-06T22:39:47.106Z,102.45
2023-01-06T22:44:50.774Z,39.50
2023-01-06T22:49:52.917Z,37.60
2023-01-06T22:54:55.359Z,36.75
2023-01-06T22:59:58.727Z,33.20
2023-01-06T23:05:00.824Z,34.25
2023-01-06T23:10:03.125Z,41.95
2023-01-06T23:15:06.709Z,37.15
2023-01-06T23:20:09.342Z,35.13
2023-01-06T23:25:11.943Z,55.97
2023-01-06T23:30:14.448Z,38.72
2023-01-06T23:35:16.745Z,26.00
2023-01-06T23:40:19.029Z,28.27
2023-01-06T23:45:21.328Z,26.70
2023-01-06T23:50:23.453Z,17.17
2023-01-06T23:55:25.832Z,29.52
